sensor_id;sensor_type;location;lat;lon;timestamp;pressure;altitude;pressure_sealevel;temperature;humidity
9969;BME280;5025;48.890;9.278;2023-04-07T00:00:11;98819.19;;;8.45;66.40
9969;BME280;5025;48.890;9.278;2023-04-07T00:02:36;98822.28;;;8.41;66.40
9969;BME280;5025;48.890;9.278;2023-04-07T00:05:02;98832.19;;;8.41;66.51
9969;BME280;5025;48.890;9.278;2023-04-07T00:07:27;98820.00;;;8.38;67.09
9969;BME280;5025;48.890;9.278;2023-04-07T00:09:52;98818.34;;;8.37;66.93
9969;BME280;5025;48.890;9.278;2023-04-07T00:12:17;98812.75;;;8.39;67.10
9969;BME280;5025;48.890;9.278;2023-04-07T00:14:43;98810.50;;;8.36;67.20
9969;BME280;5025;48.890;9.278;2023-04-07T00:17:08;98810.50;;;8.36;67.33
9969;BME280;5025;48.890;9.278;2023-04-07T00:19:33;98810.50;;;8.36;67.40
9969;BME280;5025;48.890;9.278;2023-04-07T00:21:59;98804.91;;;8.37;67.49
9969;BME280;5025;48.890;9.278;2023-04-07T00:24:25;98796.00;;;8.37;67.47
9969;BME280;5025;48.890;9.278;2023-04-07T00:26:51;98797.84;;;8.36;67.52
9969;BME280;5025;48.890;9.278;2023-04-07T00:29:16;98794.78;;;8.33;67.92
9969;BME280;5025;48.890;9.278;2023-04-07T00:31:42;98793.13;;;8.32;67.78
9969;BME280;5025;48.890;9.278;2023-04-07T00:34:07;98789.41;;;8.33;67.82
9969;BME280;5025;48.890;9.278;2023-04-07T00:36:32;98784.22;;;8.31;67.86
9969;BME280;5025;48.890;9.278;2023-04-07T00:38:58;98787.13;;;8.30;67.92
9969;BME280;5025;48.890;9.278;2023-04-07T00:41:23;98780.31;;;8.27;68.01
9969;BME280;5025;48.890;9.278;2023-04-07T00:43:50;98774.31;;;8.25;68.03
9969;BME280;5025;48.890;9.278;2023-04-07T00:46:16;98777.41;;;8.29;68.00
9969;BME280;5025;48.890;9.278;2023-04-07T00:48:42;98772.88;;;8.29;67.92
9969;BME280;5025;48.890;9.278;2023-04-07T00:51:08;98766.63;;;8.29;68.07
9969;BME280;5025;48.890;9.278;2023-04-07T00:53:34;98765.00;;;8.28;68.06
9969;BME280;5025;48.890;9.278;2023-04-07T00:55:59;98764.59;;;8.24;68.35
9969;BME280;5025;48.890;9.278;2023-04-07T00:58:24;98762.97;;;8.23;68.17
9969;BME280;5025;48.890;9.278;2023-04-07T01:00:54;98762.13;;;8.22;68.40
9969;BME280;5025;48.890;9.278;2023-04-07T01:03:57;98755.91;;;8.22;68.43
9969;BME280;5025;48.890;9.278;2023-04-07T01:06:27;98749.31;;;8.18;68.55
9969;BME280;5025;48.890;9.278;2023-04-07T01:09:06;98751.56;;;8.21;68.41
9969;BME280;5025;48.890;9.278;2023-04-07T01:11:43;98755.31;;;8.20;68.37
9969;BME280;5025;48.890;9.278;2023-04-07T01:14:14;98750.16;;;8.18;68.32
9969;BME280;5025;48.890;9.278;2023-04-07T01:16:45;98742.09;;;8.18;68.49
9969;BME280;5025;48.890;9.278;2023-04-07T01:21:57;98743.50;;;8.21;68.41
9969;BME280;5025;48.890;9.278;2023-04-07T01:24:38;98737.72;;;8.17;68.63
9969;BME280;5025;48.890;9.278;2023-04-07T01:30:01;98730.91;;;8.15;68.51
9969;BME280;5025;48.890;9.278;2023-04-07T01:32:28;98733.59;;;8.15;68.47
9969;BME280;5025;48.890;9.278;2023-04-07T01:34:56;98728.66;;;8.12;68.72
9969;BME280;5025;48.890;9.278;2023-04-07T01:37:22;98733.41;;;8.10;68.79
9969;BME280;5025;48.890;9.278;2023-04-07T01:39:48;98724.53;;;8.09;68.70
9969;BME280;5025;48.890;9.278;2023-04-07T01:42:14;98721.63;;;8.11;69.00
9969;BME280;5025;48.890;9.278;2023-04-07T01:44:41;98722.88;;;8.08;68.92
9969;BME280;5025;48.890;9.278;2023-04-07T01:47:07;98714.00;;;8.07;68.90
9969;BME280;5025;48.890;9.278;2023-04-07T01:49:34;98712.34;;;8.06;69.14
9969;BME280;5025;48.890;9.278;2023-04-07T01:52:01;98712.75;;;8.03;69.23
9969;BME280;5025;48.890;9.278;2023-04-07T01:54:27;98713.56;;;8.04;69.23
9969;BME280;5025;48.890;9.278;2023-04-07T01:56:53;98702.59;;;8.05;69.39
9969;BME280;5025;48.890;9.278;2023-04-07T01:59:18;98704.06;;;8.08;69.12
9969;BME280;5025;48.890;9.278;2023-04-07T02:01:43;98704.25;;;8.06;69.19
9969;BME280;5025;48.890;9.278;2023-04-07T02:04:20;98696.41;;;8.05;69.10
9969;BME280;5025;48.890;9.278;2023-04-07T02:06:50;98699.91;;;8.05;69.25
9969;BME280;5025;48.890;9.278;2023-04-07T02:09:20;98706.34;;;8.04;69.39
9969;BME280;5025;48.890;9.278;2023-04-07T02:11:47;98707.97;;;8.05;69.34
9969;BME280;5025;48.890;9.278;2023-04-07T02:14:15;98701.34;;;8.08;69.14
9969;BME280;5025;48.890;9.278;2023-04-07T02:16:42;98705.28;;;8.05;69.24
9969;BME280;5025;48.890;9.278;2023-04-07T02:19:07;98700.97;;;8.04;69.42
9969;BME280;5025;48.890;9.278;2023-04-07T02:21:34;98698.50;;;8.03;69.32
9969;BME280;5025;48.890;9.278;2023-04-07T02:24:01;98693.13;;;8.03;69.29
9969;BME280;5025;48.890;9.278;2023-04-07T02:26:27;98696.03;;;8.01;69.49
9969;BME280;5025;48.890;9.278;2023-04-07T02:28:52;98687.75;;;8.03;69.40
9969;BME280;5025;48.890;9.278;2023-04-07T02:31:17;98684.63;;;7.99;69.58
9969;BME280;5025;48.890;9.278;2023-04-07T02:33:43;98681.13;;;7.99;69.71
9969;BME280;5025;48.890;9.278;2023-04-07T02:36:08;98676.41;;;7.94;69.67
9969;BME280;5025;48.890;9.278;2023-04-07T02:38:33;98673.72;;;7.94;69.75
9969;BME280;5025;48.890;9.278;2023-04-07T02:40:59;98682.81;;;7.93;69.93
9969;BME280;5025;48.890;9.278;2023-04-07T02:43:24;98673.72;;;7.94;69.67
9969;BME280;5025;48.890;9.278;2023-04-07T02:45:50;98674.75;;;7.93;69.81
9969;BME280;5025;48.890;9.278;2023-04-07T02:48:15;98670.84;;;7.89;69.92
9969;BME280;5025;48.890;9.278;2023-04-07T02:50:40;98666.13;;;7.84;70.10
9969;BME280;5025;48.890;9.278;2023-04-07T02:53:06;98662.59;;;7.84;70.24
9969;BME280;5025;48.890;9.278;2023-04-07T02:55:31;98665.91;;;7.86;70.19
9969;BME280;5025;48.890;9.278;2023-04-07T02:57:56;98668.00;;;7.84;69.86
9969;BME280;5025;48.890;9.278;2023-04-07T03:00:22;98665.91;;;7.86;70.21
9969;BME280;5025;48.890;9.278;2023-04-07T03:02:47;98666.50;;;7.88;70.44
9969;BME280;5025;48.890;9.278;2023-04-07T03:05:12;98659.06;;;7.83;70.25
9969;BME280;5025;48.890;9.278;2023-04-07T03:07:38;98663.63;;;7.83;70.46
9969;BME280;5025;48.890;9.278;2023-04-07T03:10:04;98658.47;;;7.81;70.66
9969;BME280;5025;48.890;9.278;2023-04-07T03:12:29;98658.03;;;7.84;70.42
9969;BME280;5025;48.890;9.278;2023-04-07T03:14:55;98656.16;;;7.85;70.49
9969;BME280;5025;48.890;9.278;2023-04-07T03:17:20;98651.22;;;7.82;70.31
9969;BME280;5025;48.890;9.278;2023-04-07T03:19:46;98650.19;;;7.83;70.70
9969;BME280;5025;48.890;9.278;2023-04-07T03:22:11;98642.72;;;7.85;70.64
9969;BME280;5025;48.890;9.278;2023-04-07T03:24:36;98637.34;;;7.85;70.63
9969;BME280;5025;48.890;9.278;2023-04-07T03:27:03;98639.00;;;7.86;70.71
9969;BME280;5025;48.890;9.278;2023-04-07T03:29:29;98642.31;;;7.88;70.66
9969;BME280;5025;48.890;9.278;2023-04-07T03:31:54;98636.31;;;7.86;70.58
9969;BME280;5025;48.890;9.278;2023-04-07T03:34:20;98636.31;;;7.86;70.56
9969;BME280;5025;48.890;9.278;2023-04-07T03:36:45;98632.81;;;7.85;70.66
9969;BME280;5025;48.890;9.278;2023-04-07T03:39:10;98629.50;;;7.83;70.71
9969;BME280;5025;48.890;9.278;2023-04-07T03:41:35;98633.03;;;7.84;70.89
9969;BME280;5025;48.890;9.278;2023-04-07T03:44:01;98627.03;;;7.82;70.96
9969;BME280;5025;48.890;9.278;2023-04-07T03:46:26;98628.69;;;7.83;70.99
9969;BME280;5025;48.890;9.278;2023-04-07T03:48:52;98630.16;;;7.79;70.93
9969;BME280;5025;48.890;9.278;2023-04-07T03:51:17;98634.91;;;7.77;71.26
9969;BME280;5025;48.890;9.278;2023-04-07T03:53:42;98628.72;;;7.76;71.22
9969;BME280;5025;48.890;9.278;2023-04-07T03:56:08;98628.53;;;7.71;71.40
9969;BME280;5025;48.890;9.278;2023-04-07T03:58:33;98624.44;;;7.68;71.38
9969;BME280;5025;48.890;9.278;2023-04-07T04:00:58;98632.50;;;7.68;71.54
9969;BME280;5025;48.890;9.278;2023-04-07T04:03:24;98625.84;;;7.71;71.49
9969;BME280;5025;48.890;9.278;2023-04-07T04:05:51;98629.97;;;7.74;71.60
9969;BME280;5025;48.890;9.278;2023-04-07T04:08:16;98624.81;;;7.72;71.64
9969;BME280;5025;48.890;9.278;2023-04-07T04:10:42;98616.97;;;7.70;71.54
9969;BME280;5025;48.890;9.278;2023-04-07T04:13:07;98627.88;;;7.76;71.53
9969;BME280;5025;48.890;9.278;2023-04-07T04:15:32;98621.91;;;7.74;71.52
9969;BME280;5025;48.890;9.278;2023-04-07T04:17:58;98615.50;;;7.75;71.84
9969;BME280;5025;48.890;9.278;2023-04-07T04:20:23;98618.59;;;7.78;71.56
9969;BME280;5025;48.890;9.278;2023-04-07T04:22:48;98623.75;;;7.80;71.63
9969;BME280;5025;48.890;9.278;2023-04-07T04:25:15;98622.06;;;7.85;71.51
9969;BME280;5025;48.890;9.278;2023-04-07T04:27:41;98627.22;;;7.87;71.61
9969;BME280;5025;48.890;9.278;2023-04-07T04:30:07;98619.75;;;7.89;71.43
9969;BME280;5025;48.890;9.278;2023-04-07T04:32:32;98612.13;;;7.86;71.70
9969;BME280;5025;48.890;9.278;2023-04-07T04:34:58;98617.06;;;7.89;71.69
9969;BME280;5025;48.890;9.278;2023-04-07T04:37:24;98611.47;;;7.90;71.67
9969;BME280;5025;48.890;9.278;2023-04-07T04:39:49;98614.59;;;7.87;71.60
9969;BME280;5025;48.890;9.278;2023-04-07T04:42:14;98621.00;;;7.86;71.88
9969;BME280;5025;48.890;9.278;2023-04-07T04:44:40;98617.06;;;7.89;71.68
9969;BME280;5025;48.890;9.278;2023-04-07T04:47:06;98617.06;;;7.89;71.58
9969;BME280;5025;48.890;9.278;2023-04-07T04:49:31;98613.09;;;7.92;71.69
9969;BME280;5025;48.890;9.278;2023-04-07T04:51:56;98615.38;;;7.95;71.71
9969;BME280;5025;48.890;9.278;2023-04-07T04:54:22;98618.91;;;7.95;71.67
9969;BME280;5025;48.890;9.278;2023-04-07T04:56:49;98618.69;;;7.97;71.74
9969;BME280;5025;48.890;9.278;2023-04-07T04:59:15;98616.81;;;7.97;72.09
9969;BME280;5025;48.890;9.278;2023-04-07T05:01:40;98618.47;;;7.98;71.79
9969;BME280;5025;48.890;9.278;2023-04-07T05:04:05;98613.69;;;8.00;71.91
9969;BME280;5025;48.890;9.278;2023-04-07T05:06:33;98617.81;;;8.03;71.67
9969;BME280;5025;48.890;9.278;2023-04-07T05:08:58;98613.47;;;8.02;71.92
9969;BME280;5025;48.890;9.278;2023-04-07T05:11:23;98617.41;;;7.99;72.14
9969;BME280;5025;48.890;9.278;2023-04-07T05:13:48;98625.25;;;8.01;71.66
9969;BME280;5025;48.890;9.278;2023-04-07T05:16:14;98618.47;;;7.98;72.14
9969;BME280;5025;48.890;9.278;2023-04-07T05:18:39;98622.78;;;7.99;72.34
9969;BME280;5025;48.890;9.278;2023-04-07T05:21:04;98622.78;;;7.99;72.39
9969;BME280;5025;48.890;9.278;2023-04-07T05:23:30;98616.81;;;7.97;72.44
9969;BME280;5025;48.890;9.278;2023-04-07T05:25:55;98619.06;;;8.00;72.47
9969;BME280;5025;48.890;9.278;2023-04-07T05:28:21;98619.50;;;7.97;72.52
9969;BME280;5025;48.890;9.278;2023-04-07T05:30:47;98621.16;;;7.98;72.68
9969;BME280;5025;48.890;9.278;2023-04-07T05:33:12;98618.91;;;7.95;72.85
9969;BME280;5025;48.890;9.278;2023-04-07T05:35:37;98612.91;;;7.93;72.82
9969;BME280;5025;48.890;9.278;2023-04-07T05:38:02;98619.72;;;7.96;72.83
9969;BME280;5025;48.890;9.278;2023-04-07T05:40:30;98618.06;;;7.95;72.97
9969;BME280;5025;48.890;9.278;2023-04-07T05:42:55;98620.53;;;7.96;72.92
9969;BME280;5025;48.890;9.278;2023-04-07T05:45:21;98625.09;;;7.96;73.08
9969;BME280;5025;48.890;9.278;2023-04-07T05:47:46;98622.41;;;7.96;73.13
9969;BME280;5025;48.890;9.278;2023-04-07T05:50:14;98622.84;;;7.93;73.00
9969;BME280;5025;48.890;9.278;2023-04-07T05:52:40;98622.03;;;7.92;73.33
9969;BME280;5025;48.890;9.278;2023-04-07T05:55:05;98616.66;;;7.92;73.36
9969;BME280;5025;48.890;9.278;2023-04-07T05:57:31;98621.19;;;7.92;73.32
9969;BME280;5025;48.890;9.278;2023-04-07T05:59:57;98614.16;;;7.90;73.52
9969;BME280;5025;48.890;9.278;2023-04-07T06:02:22;98620.16;;;7.93;73.64
9969;BME280;5025;48.890;9.278;2023-04-07T06:04:48;98623.66;;;7.93;73.57
9969;BME280;5025;48.890;9.278;2023-04-07T06:07:13;98617.66;;;7.91;73.64
9969;BME280;5025;48.890;9.278;2023-04-07T06:09:38;98631.50;;;7.95;73.93
9969;BME280;5025;48.890;9.278;2023-04-07T06:12:04;98625.09;;;7.96;74.03
9969;BME280;5025;48.890;9.278;2023-04-07T06:14:31;98620.31;;;7.98;73.82
9969;BME280;5025;48.890;9.278;2023-04-07T06:16:56;98627.13;;;8.00;73.93
9969;BME280;5025;48.890;9.278;2023-04-07T06:19:21;98634.19;;;8.01;73.83
9969;BME280;5025;48.890;9.278;2023-04-07T06:21:47;98631.47;;;8.01;73.90
9969;BME280;5025;48.890;9.278;2023-04-07T06:24:12;98633.13;;;8.02;73.97
9969;BME280;5025;48.890;9.278;2023-04-07T06:26:38;98624.00;;;8.03;73.95
9969;BME280;5025;48.890;9.278;2023-04-07T06:29:04;98625.03;;;8.02;74.17
9969;BME280;5025;48.890;9.278;2023-04-07T06:31:30;98633.75;;;8.04;73.97
9969;BME280;5025;48.890;9.278;2023-04-07T06:33:55;98634.34;;;8.06;74.30
9969;BME280;5025;48.890;9.278;2023-04-07T06:36:20;98631.66;;;8.06;73.94
9969;BME280;5025;48.890;9.278;2023-04-07T06:38:47;98619.44;;;8.04;74.11
9969;BME280;5025;48.890;9.278;2023-04-07T06:41:12;98636.00;;;8.07;74.43
9969;BME280;5025;48.890;9.278;2023-04-07T06:43:42;98633.91;;;8.10;74.23
9969;BME280;5025;48.890;9.278;2023-04-07T06:46:07;98629.97;;;8.12;74.30
9969;BME280;5025;48.890;9.278;2023-04-07T06:48:32;98627.88;;;8.14;74.44
9969;BME280;5025;48.890;9.278;2023-04-07T06:50:58;98623.09;;;8.16;74.47
9969;BME280;5025;48.890;9.278;2023-04-07T06:53:23;98621.84;;;8.19;74.46
9969;BME280;5025;48.890;9.278;2023-04-07T06:55:48;98633.84;;;8.23;74.49
9969;BME280;5025;48.890;9.278;2023-04-07T06:58:13;98620.38;;;8.23;74.52
9969;BME280;5025;48.890;9.278;2023-04-07T07:00:39;98613.13;;;8.23;74.49
9969;BME280;5025;48.890;9.278;2023-04-07T07:03:05;98616.19;;;8.27;74.67
9969;BME280;5025;48.890;9.278;2023-04-07T07:05:30;98612.25;;;8.30;74.59
9969;BME280;5025;48.890;9.278;2023-04-07T07:07:56;98624.47;;;8.32;74.57
9969;BME280;5025;48.890;9.278;2023-04-07T07:10:21;98622.38;;;8.34;74.56
9969;BME280;5025;48.890;9.278;2023-04-07T07:12:47;98625.22;;;8.39;74.52
9969;BME280;5025;48.890;9.278;2023-04-07T07:15:12;98620.25;;;8.43;74.46
9969;BME280;5025;48.890;9.278;2023-04-07T07:17:38;98626.47;;;8.43;74.77
9969;BME280;5025;48.890;9.278;2023-04-07T07:20:03;98630.38;;;8.48;74.50
9969;BME280;5025;48.890;9.278;2023-04-07T07:22:29;98628.28;;;8.50;74.49
9969;BME280;5025;48.890;9.278;2023-04-07T07:24:54;98614.38;;;8.53;74.39
9969;BME280;5025;48.890;9.278;2023-04-07T07:27:20;98619.94;;;8.58;74.26
9969;BME280;5025;48.890;9.278;2023-04-07T07:29:45;98623.69;;;8.57;74.05
9969;BME280;5025;48.890;9.278;2023-04-07T07:32:19;98620.78;;;8.58;73.81
9969;BME280;5025;48.890;9.278;2023-04-07T07:34:47;98617.22;;;8.58;73.40
9969;BME280;5025;48.890;9.278;2023-04-07T07:37:13;98620.16;;;8.56;73.34
9969;BME280;5025;48.890;9.278;2023-04-07T07:39:38;98620.78;;;8.58;73.09
9969;BME280;5025;48.890;9.278;2023-04-07T07:42:03;98624.88;;;8.61;73.02
9969;BME280;5025;48.890;9.278;2023-04-07T07:44:29;98629.00;;;8.64;72.90
9969;BME280;5025;48.890;9.278;2023-04-07T07:46:54;98626.09;;;8.65;72.95
9969;BME280;5025;48.890;9.278;2023-04-07T07:49:20;98627.31;;;8.69;72.60
9969;BME280;5025;48.890;9.278;2023-04-07T07:51:45;98626.66;;;8.74;72.52
9969;BME280;5025;48.890;9.278;2023-04-07T07:54:11;98625.13;;;8.78;72.33
9969;BME280;5025;48.890;9.278;2023-04-07T07:56:36;98626.72;;;8.86;72.07
9969;BME280;5025;48.890;9.278;2023-04-07T07:59:02;98625.03;;;8.91;72.09
9969;BME280;5025;48.890;9.278;2023-04-07T08:01:30;98633.25;;;8.96;71.77
9969;BME280;5025;48.890;9.278;2023-04-07T08:03:55;98628.41;;;9.05;71.37
9969;BME280;5025;48.890;9.278;2023-04-07T08:06:20;98623.78;;;9.12;70.93
9969;BME280;5025;48.890;9.278;2023-04-07T08:08:46;98623.50;;;9.21;70.73
9969;BME280;5025;48.890;9.278;2023-04-07T08:11:11;98630.22;;;9.30;70.35
9969;BME280;5025;48.890;9.278;2023-04-07T08:13:36;98617.94;;;9.34;70.07
9969;BME280;5025;48.890;9.278;2023-04-07T08:16:02;98633.59;;;9.44;69.74
9969;BME280;5025;48.890;9.278;2023-04-07T08:18:27;98623.78;;;9.49;69.06
9969;BME280;5025;48.890;9.278;2023-04-07T08:20:52;98626.84;;;9.53;68.70
9969;BME280;5025;48.890;9.278;2023-04-07T08:23:18;98628.88;;;9.58;68.38
9969;BME280;5025;48.890;9.278;2023-04-07T08:25:43;98631.56;;;9.58;68.42
9969;BME280;5025;48.890;9.278;2023-04-07T08:28:09;98630.91;;;9.62;67.83
9969;BME280;5025;48.890;9.278;2023-04-07T08:30:34;98630.66;;;9.64;67.63
9969;BME280;5025;48.890;9.278;2023-04-07T08:32:59;98630.44;;;9.65;67.12
9969;BME280;5025;48.890;9.278;2023-04-07T08:35:25;98630.44;;;9.65;67.11
9969;BME280;5025;48.890;9.278;2023-04-07T08:37:50;98630.22;;;9.67;66.77
9969;BME280;5025;48.890;9.278;2023-04-07T08:40:16;98635.06;;;9.77;66.71
9969;BME280;5025;48.890;9.278;2023-04-07T08:42:44;98630.78;;;9.87;66.36
9969;BME280;5025;48.890;9.278;2023-04-07T08:45:11;98634.69;;;10.03;66.09
9969;BME280;5025;48.890;9.278;2023-04-07T08:47:39;98636.03;;;10.13;65.88
9969;BME280;5025;48.890;9.278;2023-04-07T08:50:07;98631.00;;;10.16;65.78
9969;BME280;5025;48.890;9.278;2023-04-07T08:52:44;98638.66;;;10.19;65.76
9969;BME280;5025;48.890;9.278;2023-04-07T08:55:13;98645.22;;;10.23;65.68
9969;BME280;5025;48.890;9.278;2023-04-07T08:57:40;98643.72;;;10.28;65.51
9969;BME280;5025;48.890;9.278;2023-04-07T09:00:06;98645.72;;;10.32;65.37
9969;BME280;5025;48.890;9.278;2023-04-07T09:02:32;98651.13;;;10.32;65.20
9969;BME280;5025;48.890;9.278;2023-04-07T09:04:58;98647.00;;;10.30;64.99
9969;BME280;5025;48.890;9.278;2023-04-07T09:07:25;98652.03;;;10.26;64.60
9969;BME280;5025;48.890;9.278;2023-04-07T09:09:50;98660.81;;;10.21;64.35
9969;BME280;5025;48.890;9.278;2023-04-07T09:12:15;98652.31;;;10.06;63.94
9969;BME280;5025;48.890;9.278;2023-04-07T09:14:41;98656.47;;;9.90;63.78
9969;BME280;5025;48.890;9.278;2023-04-07T09:17:06;98653.22;;;10.00;63.93
9969;BME280;5025;48.890;9.278;2023-04-07T09:19:32;98644.81;;;10.08;63.58
9969;BME280;5025;48.890;9.278;2023-04-07T09:21:57;98643.59;;;10.22;63.26
9969;BME280;5025;48.890;9.278;2023-04-07T09:24:27;98648.75;;;10.24;63.64
9969;BME280;5025;48.890;9.278;2023-04-07T09:27:09;98643.09;;;10.44;63.39
9969;BME280;5025;48.890;9.278;2023-04-07T09:29:35;98643.91;;;10.56;63.17
9969;BME280;5025;48.890;9.278;2023-04-07T09:32:01;98644.97;;;10.67;63.07
9969;BME280;5025;48.890;9.278;2023-04-07T09:34:29;98655.47;;;10.75;62.93
9969;BME280;5025;48.890;9.278;2023-04-07T09:36:55;98652.53;;;10.77;62.90
9969;BME280;5025;48.890;9.278;2023-04-07T09:39:21;98654.53;;;10.82;63.15
9969;BME280;5025;48.890;9.278;2023-04-07T09:41:47;98659.81;;;10.88;62.89
9969;BME280;5025;48.890;9.278;2023-04-07T09:44:12;98662.63;;;10.93;62.65
9969;BME280;5025;48.890;9.278;2023-04-07T09:46:52;98659.13;;;11.05;62.41
9969;BME280;5025;48.890;9.278;2023-04-07T09:49:18;98661.69;;;11.11;62.44
9969;BME280;5025;48.890;9.278;2023-04-07T09:51:59;98649.13;;;11.17;62.26
9969;BME280;5025;48.890;9.278;2023-04-07T09:54:38;98653.22;;;11.20;62.25
9969;BME280;5025;48.890;9.278;2023-04-07T09:57:07;98647.72;;;11.26;62.22
9969;BME280;5025;48.890;9.278;2023-04-07T09:59:38;98656.50;;;11.34;61.86
9969;BME280;5025;48.890;9.278;2023-04-07T10:02:05;98657.34;;;11.34;61.73
9969;BME280;5025;48.890;9.278;2023-04-07T10:04:30;98653.56;;;11.35;61.56
9969;BME280;5025;48.890;9.278;2023-04-07T10:06:57;98658.97;;;11.47;61.53
9969;BME280;5025;48.890;9.278;2023-04-07T10:09:25;98645.69;;;11.45;61.77
9969;BME280;5025;48.890;9.278;2023-04-07T10:11:52;98650.97;;;11.52;61.58
9969;BME280;5025;48.890;9.278;2023-04-07T10:14:21;98643.44;;;11.54;61.22
9969;BME280;5025;48.890;9.278;2023-04-07T10:16:49;98643.31;;;11.49;60.72
9969;BME280;5025;48.890;9.278;2023-04-07T10:19:16;98642.50;;;11.48;60.52
9969;BME280;5025;48.890;9.278;2023-04-07T10:21:42;98639.56;;;11.50;60.33
9969;BME280;5025;48.890;9.278;2023-04-07T10:27:07;98646.25;;;11.59;60.04
9969;BME280;5025;48.890;9.278;2023-04-07T10:29:38;98637.19;;;11.65;60.19
9969;BME280;5025;48.890;9.278;2023-04-07T10:32:04;98643.28;;;11.73;59.79
9969;BME280;5025;48.890;9.278;2023-04-07T10:37:15;98645.22;;;11.89;59.46
9969;BME280;5025;48.890;9.278;2023-04-07T10:39:44;98645.28;;;12.06;59.34
9969;BME280;5025;48.890;9.278;2023-04-07T10:45:09;98641.97;;;12.33;58.26
9969;BME280;5025;48.890;9.278;2023-04-07T10:50:23;98638.81;;;12.70;57.74
9969;BME280;5025;48.890;9.278;2023-04-07T10:53:25;98634.81;;;12.89;57.57
9969;BME280;5025;48.890;9.278;2023-04-07T10:55:53;98635.94;;;13.11;57.60
9969;BME280;5025;48.890;9.278;2023-04-07T10:58:22;98625.78;;;13.23;57.23
9969;BME280;5025;48.890;9.278;2023-04-07T11:03:26;98631.09;;;13.52;56.27
9969;BME280;5025;48.890;9.278;2023-04-07T11:06:02;98634.19;;;13.60;55.80
9969;BME280;5025;48.890;9.278;2023-04-07T11:08:36;98625.09;;;13.72;55.38
9969;BME280;5025;48.890;9.278;2023-04-07T11:11:02;98624.47;;;13.87;55.01
9969;BME280;5025;48.890;9.278;2023-04-07T11:13:41;98621.97;;;14.07;54.55
9969;BME280;5025;48.890;9.278;2023-04-07T11:16:07;98617.81;;;14.27;54.49
9969;BME280;5025;48.890;9.278;2023-04-07T11:18:34;98616.47;;;14.29;53.88
9969;BME280;5025;48.890;9.278;2023-04-07T11:21:00;98619.50;;;14.33;53.72
9969;BME280;5025;48.890;9.278;2023-04-07T11:23:26;98622.66;;;14.25;53.38
9969;BME280;5025;48.890;9.278;2023-04-07T11:25:59;98617.75;;;14.22;53.54
9969;BME280;5025;48.890;9.278;2023-04-07T11:28:28;98625.31;;;14.14;53.28
9969;BME280;5025;48.890;9.278;2023-04-07T11:30:54;98625.56;;;14.13;53.15
9969;BME280;5025;48.890;9.278;2023-04-07T11:33:24;98620.91;;;14.08;53.25
9969;BME280;5025;48.890;9.278;2023-04-07T11:35:53;98631.38;;;13.99;53.30
9969;BME280;5025;48.890;9.278;2023-04-07T11:38:20;98625.03;;;13.89;53.02
9969;BME280;5025;48.890;9.278;2023-04-07T11:40:46;98622.94;;;13.74;52.88
9969;BME280;5025;48.890;9.278;2023-04-07T11:43:25;98630.97;;;13.63;52.76
9969;BME280;5025;48.890;9.278;2023-04-07T11:46:13;98631.91;;;13.52;53.03
9969;BME280;5025;48.890;9.278;2023-04-07T11:48:40;98628.22;;;13.41;52.75
9969;BME280;5025;48.890;9.278;2023-04-07T11:51:15;98631.94;;;13.35;52.67
9969;BME280;5025;48.890;9.278;2023-04-07T11:53:40;98638.09;;;13.31;52.57
9969;BME280;5025;48.890;9.278;2023-04-07T11:56:07;98640.00;;;13.30;52.71
9969;BME280;5025;48.890;9.278;2023-04-07T11:58:35;98635.25;;;13.20;53.00
9969;BME280;5025;48.890;9.278;2023-04-07T12:01:02;98636.56;;;13.18;52.92
9969;BME280;5025;48.890;9.278;2023-04-07T12:03:29;98642.97;;;13.12;53.10
9969;BME280;5025;48.890;9.278;2023-04-07T12:05:54;98642.66;;;13.08;53.36
9969;BME280;5025;48.890;9.278;2023-04-07T12:08:20;98645.88;;;12.88;53.89
9969;BME280;5025;48.890;9.278;2023-04-07T12:10:46;98648.28;;;12.67;53.73
9969;BME280;5025;48.890;9.278;2023-04-07T12:13:12;98645.00;;;12.19;53.34
9969;BME280;5025;48.890;9.278;2023-04-07T12:15:38;98654.28;;;11.95;54.28
9969;BME280;5025;48.890;9.278;2023-04-07T12:18:03;98646.03;;;12.01;54.48
9969;BME280;5025;48.890;9.278;2023-04-07T12:20:29;98651.53;;;12.07;54.11
9969;BME280;5025;48.890;9.278;2023-04-07T12:22:54;98649.78;;;12.00;54.40
9969;BME280;5025;48.890;9.278;2023-04-07T12:25:20;98663.13;;;11.78;55.50
9969;BME280;5025;48.890;9.278;2023-04-07T12:27:45;98660.53;;;11.83;55.81
9969;BME280;5025;48.890;9.278;2023-04-07T12:30:11;98661.13;;;11.74;56.07
9969;BME280;5025;48.890;9.278;2023-04-07T12:32:37;98658.34;;;11.69;56.53
9969;BME280;5025;48.890;9.278;2023-04-07T12:35:02;98657.53;;;11.68;57.10
9969;BME280;5025;48.890;9.278;2023-04-07T12:37:27;98669.78;;;11.59;57.57
9969;BME280;5025;48.890;9.278;2023-04-07T12:39:53;98661.09;;;11.45;58.32
9969;BME280;5025;48.890;9.278;2023-04-07T12:42:18;98661.91;;;11.57;58.23
9969;BME280;5025;48.890;9.278;2023-04-07T12:44:43;98658.09;;;11.70;57.94
9969;BME280;5025;48.890;9.278;2023-04-07T12:47:10;98668.22;;;11.75;58.41
9969;BME280;5025;48.890;9.278;2023-04-07T12:49:36;98661.28;;;11.67;58.29
9969;BME280;5025;48.890;9.278;2023-04-07T12:52:01;98671.63;;;11.70;58.12
9969;BME280;5025;48.890;9.278;2023-04-07T12:54:27;98668.59;;;11.55;57.59
9969;BME280;5025;48.890;9.278;2023-04-07T12:56:53;98665.00;;;11.37;58.33
9969;BME280;5025;48.890;9.278;2023-04-07T12:59:18;98666.75;;;11.43;58.67
9969;BME280;5025;48.890;9.278;2023-04-07T13:01:43;98667.31;;;11.57;58.44
9969;BME280;5025;48.890;9.278;2023-04-07T13:04:09;98662.38;;;11.54;58.67
9969;BME280;5025;48.890;9.278;2023-04-07T13:06:35;98662.84;;;11.51;59.03
9969;BME280;5025;48.890;9.278;2023-04-07T13:09:00;98663.44;;;11.53;59.18
9969;BME280;5025;48.890;9.278;2023-04-07T13:11:25;98658.56;;;11.67;59.04
9969;BME280;5025;48.890;9.278;2023-04-07T13:13:51;98659.69;;;11.83;58.51
9969;BME280;5025;48.890;9.278;2023-04-07T13:16:16;98666.50;;;11.97;58.13
9969;BME280;5025;48.890;9.278;2023-04-07T13:18:41;98651.75;;;12.05;57.75
9969;BME280;5025;48.890;9.278;2023-04-07T13:21:07;98655.41;;;12.11;57.71
9969;BME280;5025;48.890;9.278;2023-04-07T13:23:32;98661.81;;;12.22;57.34
9969;BME280;5025;48.890;9.278;2023-04-07T13:25:57;98662.16;;;12.25;57.39
9969;BME280;5025;48.890;9.278;2023-04-07T13:28:23;98663.66;;;12.33;57.49
9969;BME280;5025;48.890;9.278;2023-04-07T13:30:48;98660.53;;;12.24;57.20
9969;BME280;5025;48.890;9.278;2023-04-07T13:33:13;98661.34;;;12.25;57.02
9969;BME280;5025;48.890;9.278;2023-04-07T13:35:39;98662.16;;;12.25;56.89
9969;BME280;5025;48.890;9.278;2023-04-07T13:38:04;98656.13;;;12.06;56.85
9969;BME280;5025;48.890;9.278;2023-04-07T13:40:30;98657.81;;;11.95;57.73
9969;BME280;5025;48.890;9.278;2023-04-07T13:42:55;98655.97;;;11.72;56.92
9969;BME280;5025;48.890;9.278;2023-04-07T13:45:26;98658.19;;;11.75;57.14